Orrville, Ohio
Current Conditions -  °F | °C
As of 8:24 AM on Thursday 27 Nov 2014 (Local Time) from KBJJ Reporting Station
Light Snow Light Snow  
Wind Chill: 21°   Ceiling: 900
Heat Index: 31°   Visibility: 3mi
Dew Point: 28°   Wind: 14mph
Humidity: 89%   Direction: 340°NNW
Pressure: 30.08"   Gusts: NA
Location:  40.84°N, 81.76°W
Report Text: KBJJ 271324Z AUTO 34012KT 3SM -SN BR OVC009 M01/M02 A3008 RMK AO2 CIG 005V013 P0000 T10061022 TSNO
Loading
Personal Weather Stations






























Interactive Weather Map New forecast layout! Learn more

10-Day Weather Forecast

Advertisements
Track Severe Weather on mobile